Time;durP1;ratioP1;P1;durP2;ratioP2;P2;SDS_P1;SDS_P2;PMS_P1;PMS_P2;Temp;Humidity;BMP_temperature;BMP_pressure;BME280_temperature;BME280_humidity;BME280_pressure;Samples;Min_cycle;Max_cycle;Signal;HPM_P1;HPM_P2
2022/07/17 00:00:41;;;;;;;1.45;0.47;;;15.80;71.40;;;;;;5067798;28;20074;-61
2022/07/17 00:03:11;;;;;;;1.83;0.55;;;15.70;71.50;;;;;;5063597;28;20021;-61
2022/07/17 00:05:37;;;;;;;1.05;0.40;;;15.60;71.70;;;;;;5067045;28;20082;-61
2022/07/17 00:08:03;;;;;;;3.13;0.75;;;15.60;72.00;;;;;;5067564;28;20033;-61
2022/07/17 00:10:29;;;;;;;1.55;0.47;;;15.50;72.10;;;;;;5066518;28;20051;-61
2022/07/17 00:12:54;;;;;;;3.47;0.82;;;15.50;72.30;;;;;;5063512;28;20381;-61
2022/07/17 00:15:20;;;;;;;0.90;0.40;;;15.50;72.50;;;;;;5069373;28;20423;-61
2022/07/17 00:17:45;;;;;;;1.90;0.50;;;15.50;72.80;;;;;;5062589;28;20029;-61
2022/07/17 00:20:11;;;;;;;2.10;0.47;;;15.40;73.00;;;;;;5066283;28;20057;-61
2022/07/17 00:22:37;;;;;;;1.25;0.50;;;15.40;73.30;;;;;;5064648;28;20025;-61
2022/07/17 00:25:04;;;;;;;1.48;0.52;;;15.30;73.30;;;;;;5069038;28;20073;-61
2022/07/17 00:27:30;;;;;;;2.50;0.50;;;15.20;73.60;;;;;;5067102;28;20024;-61
2022/07/17 00:29:55;;;;;;;3.35;0.80;;;15.20;73.80;;;;;;5067494;28;20021;-62
2022/07/17 00:32:23;;;;;;;1.00;0.47;;;15.10;74.00;;;;;;5065560;28;20017;-61
2022/07/17 00:34:49;;;;;;;1.75;0.40;;;15.00;74.20;;;;;;5068847;28;20107;-61
2022/07/17 00:37:15;;;;;;;1.75;0.32;;;15.00;74.40;;;;;;5067466;28;20029;-61
2022/07/17 00:39:40;;;;;;;1.33;0.50;;;15.00;74.50;;;;;;5067314;28;20032;-61
2022/07/17 00:42:11;;;;;;;2.28;0.70;;;15.00;74.70;;;;;;5063850;28;20029;-61
2022/07/17 00:44:36;;;;;;;1.67;0.40;;;14.90;74.70;;;;;;5065912;28;20025;-61
2022/07/17 00:47:02;;;;;;;2.30;0.50;;;14.90;74.90;;;;;;5066400;28;20049;-61
2022/07/17 00:49:27;;;;;;;2.13;0.40;;;14.80;75.00;;;;;;5066975;28;20044;-61
2022/07/17 00:51:53;;;;;;;2.90;0.40;;;14.80;75.20;;;;;;5063044;28;20105;-61
2022/07/17 00:54:19;;;;;;;1.17;0.30;;;14.70;75.30;;;;;;5068484;28;20032;-61
2022/07/17 00:56:47;;;;;;;1.27;0.35;;;14.70;75.50;;;;;;5066649;28;20036;-61
2022/07/17 00:59:14;;;;;;;1.60;0.50;;;14.70;75.60;;;;;;5058952;28;20404;-61
2022/07/17 01:01:40;;;;;;;2.35;0.50;;;14.60;75.80;;;;;;5077768;28;20037;-62
2022/07/17 01:04:05;;;;;;;2.00;0.50;;;14.60;75.90;;;;;;5068240;28;20034;-61
2022/07/17 01:06:31;;;;;;;1.70;0.40;;;14.50;76.00;;;;;;5066770;28;20473;-61
2022/07/17 01:08:56;;;;;;;1.30;0.32;;;14.50;76.20;;;;;;5066859;28;20056;-61
2022/07/17 01:11:22;;;;;;;3.22;0.68;;;14.50;76.30;;;;;;5064978;28;20392;-61
2022/07/17 01:13:47;;;;;;;0.98;0.38;;;14.40;76.50;;;;;;5065713;28;20074;-61
2022/07/17 01:16:13;;;;;;;1.80;0.40;;;14.40;76.60;;;;;;5067651;28;20059;-61
2022/07/17 01:18:40;;;;;;;2.20;0.40;;;14.40;76.80;;;;;;5065548;28;20044;-61
2022/07/17 01:21:07;;;;;;;1.20;0.50;;;14.40;76.90;;;;;;5066288;28;20086;-61
2022/07/17 01:23:33;;;;;;;1.95;0.40;;;14.40;77.00;;;;;;5065623;28;20051;-61
2022/07/17 01:25:59;;;;;;;3.10;0.50;;;14.30;77.20;;;;;;5067537;28;20024;-61
2022/07/17 01:28:25;;;;;;;2.75;1.13;;;14.30;77.40;;;;;;5065156;28;20035;-62
2022/07/17 01:30:51;;;;;;;1.90;0.50;;;14.20;77.50;;;;;;5066001;28;20025;-61
2022/07/17 01:33:18;;;;;;;2.42;0.63;;;14.10;77.60;;;;;;5067727;28;20107;-61
2022/07/17 01:35:44;;;;;;;0.85;0.30;;;14.10;77.80;;;;;;5066457;28;20059;-61
2022/07/17 01:38:09;;;;;;;2.58;0.50;;;14.10;78.10;;;;;;5065929;28;20305;-63
2022/07/17 01:40:35;;;;;;;1.10;0.32;;;14.00;78.30;;;;;;5063057;28;20060;-61
2022/07/17 01:43:00;;;;;;;5.28;0.50;;;13.90;78.50;;;;;;5067987;28;20444;-61
2022/07/17 01:45:26;;;;;;;2.70;0.40;;;13.80;78.80;;;;;;5065863;28;20140;-61
2022/07/17 01:47:52;;;;;;;0.95;0.50;;;13.80;79.10;;;;;;5080932;28;20553;-61
2022/07/17 01:50:18;;;;;;;1.77;0.50;;;13.80;79.30;;;;;;5068058;28;20079;-61
2022/07/17 01:52:45;;;;;;;2.85;0.65;;;13.70;79.60;;;;;;5068559;28;20024;-61
2022/07/17 01:55:13;;;;;;;1.55;0.40;;;13.70;79.70;;;;;;5069473;28;20484;-61
2022/07/17 01:57:39;;;;;;;2.42;0.50;;;13.70;79.70;;;;;;5066905;28;20060;-61
2022/07/17 02:00:08;;;;;;;1.27;0.40;;;13.70;79.80;;;;;;5066630;28;20044;-61
2022/07/17 02:02:34;;;;;;;0.90;0.40;;;13.70;79.80;;;;;;5066957;28;20066;-62
2022/07/17 02:05:00;;;;;;;1.25;0.60;;;13.60;79.90;;;;;;5069560;28;20040;-61
2022/07/17 02:07:26;;;;;;;1.17;0.47;;;13.60;79.90;;;;;;5071804;28;20137;-61
2022/07/17 02:09:52;;;;;;;1.90;0.52;;;13.60;80.00;;;;;;5070947;28;20464;-61
2022/07/17 02:12:17;;;;;;;1.73;0.40;;;13.60;80.20;;;;;;5068544;28;20281;-61
2022/07/17 02:14:43;;;;;;;2.20;1.00;;;13.50;80.20;;;;;;5070896;28;20043;-61
2022/07/17 02:17:08;;;;;;;1.02;0.45;;;13.40;80.30;;;;;;5069393;28;20031;-61
2022/07/17 02:19:34;;;;;;;1.75;0.50;;;13.40;80.50;;;;;;5069202;28;20041;-61
2022/07/17 02:21:59;;;;;;;2.53;0.45;;;13.40;80.70;;;;;;5071074;28;20040;-61
2022/07/17 02:24:25;;;;;;;1.08;0.40;;;13.40;80.90;;;;;;5069657;28;20052;-61
2022/07/17 02:26:50;;;;;;;1.45;0.40;;;13.30;81.00;;;;;;5069751;28;20028;-61
2022/07/17 02:29:16;;;;;;;0.70;0.40;;;13.30;81.10;;;;;;5066594;28;20021;-61
2022/07/17 02:31:41;;;;;;;0.73;0.40;;;13.20;81.20;;;;;;5072434;28;20060;-61
2022/07/17 02:34:07;;;;;;;1.15;0.40;;;13.20;81.40;;;;;;5073225;28;20020;-61
2022/07/17 02:36:32;;;;;;;1.50;0.45;;;13.10;81.60;;;;;;5070848;28;20028;-61
2022/07/17 02:38:58;;;;;;;2.35;0.50;;;13.10;81.70;;;;;;5070062;28;20028;-61
2022/07/17 02:41:24;;;;;;;2.17;0.40;;;13.10;81.70;;;;;;5071717;28;20082;-61
2022/07/17 02:43:49;;;;;;;1.23;0.40;;;13.10;81.80;;;;;;5067076;28;20472;-61
2022/07/17 02:46:15;;;;;;;1.65;0.60;;;13.10;82.00;;;;;;5065686;28;20462;-61
2022/07/17 02:48:41;;;;;;;1.33;0.43;;;13.10;82.10;;;;;;5068978;28;20036;-61
2022/07/17 02:51:07;;;;;;;1.13;0.50;;;13.10;82.30;;;;;;5069301;28;20012;-61
2022/07/17 02:53:33;;;;;;;0.70;0.40;;;13.00;82.40;;;;;;5068887;28;20024;-61
2022/07/17 02:55:58;;;;;;;2.53;0.40;;;12.90;82.60;;;;;;5068485;28;20051;-61
2022/07/17 02:58:25;;;;;;;1.23;0.40;;;12.90;82.80;;;;;;5069950;28;20055;-61
2022/07/17 03:00:50;;;;;;;0.95;0.40;;;12.80;82.90;;;;;;5069578;28;20024;-61
2022/07/17 03:03:16;;;;;;;0.93;0.40;;;12.80;83.00;;;;;;5051020;28;20025;-61
2022/07/17 03:05:41;;;;;;;2.15;0.40;;;12.80;83.20;;;;;;5068785;28;20502;-61
2022/07/17 03:08:07;;;;;;;1.88;0.45;;;12.80;83.20;;;;;;5071493;28;20024;-61
2022/07/17 03:10:33;;;;;;;1.27;0.40;;;12.80;83.30;;;;;;5069433;28;20024;-61
2022/07/17 03:12:58;;;;;;;1.02;0.50;;;12.80;83.40;;;;;;5069158;28;20028;-61
2022/07/17 03:15:26;;;;;;;1.42;0.60;;;12.70;83.50;;;;;;5067359;28;20036;-61
2022/07/17 03:17:52;;;;;;;2.97;0.70;;;12.70;83.70;;;;;;5069616;28;20035;-61
2022/07/17 03:20:17;;;;;;;2.45;0.50;;;12.60;83.90;;;;;;5069332;28;20020;-61
2022/07/17 03:22:43;;;;;;;1.75;0.50;;;12.60;84.00;;;;;;5068634;28;20035;-61
2022/07/17 03:25:09;;;;;;;1.55;0.57;;;12.60;84.10;;;;;;5070158;28;20024;-61
2022/07/17 03:27:35;;;;;;;2.63;0.47;;;12.60;84.20;;;;;;5069514;28;20024;-60
2022/07/17 03:30:00;;;;;;;1.58;0.50;;;12.60;84.40;;;;;;5068609;28;20099;-61
2022/07/17 03:32:26;;;;;;;1.63;0.55;;;12.60;84.50;;;;;;5067003;28;20135;-61
2022/07/17 03:34:51;;;;;;;1.80;0.40;;;12.50;84.50;;;;;;5067363;28;20031;-62
2022/07/17 03:37:17;;;;;;;0.90;0.40;;;12.50;84.60;;;;;;5069352;28;20024;-61
2022/07/17 03:39:43;;;;;;;1.33;0.38;;;12.50;84.90;;;;;;5069362;28;20523;-61
2022/07/17 03:42:09;;;;;;;0.63;0.30;;;12.50;85.10;;;;;;5066809;28;20556;-61
2022/07/17 03:44:34;;;;;;;0.90;0.45;;;12.40;85.30;;;;;;5069470;28;20072;-61
2022/07/17 03:47:00;;;;;;;1.20;0.45;;;12.40;85.50;;;;;;5068454;28;20024;-61
2022/07/17 03:49:25;;;;;;;1.35;0.50;;;12.40;85.70;;;;;;5068279;28;20022;-61
2022/07/17 03:51:51;;;;;;;0.88;0.40;;;12.30;85.90;;;;;;5064685;28;20029;-60
2022/07/17 03:54:17;;;;;;;1.80;0.52;;;12.30;86.20;;;;;;5069475;28;20016;-61
2022/07/17 03:56:42;;;;;;;1.50;0.40;;;12.30;86.30;;;;;;5068167;28;20433;-61
2022/07/17 03:59:08;;;;;;;1.40;0.63;;;12.20;86.40;;;;;;5069588;28;20064;-60
2022/07/17 04:01:33;;;;;;;1.25;0.50;;;12.20;86.50;;;;;;5065168;28;20039;-60
2022/07/17 04:03:59;;;;;;;3.10;0.80;;;12.20;86.60;;;;;;5069556;28;20029;-61
2022/07/17 04:06:24;;;;;;;1.95;0.50;;;12.20;86.70;;;;;;5065579;28;20025;-61
2022/07/17 04:08:50;;;;;;;2.17;0.47;;;12.20;86.90;;;;;;5083636;28;20020;-61
2022/07/17 04:11:16;;;;;;;0.90;0.52;;;12.30;86.90;;;;;;5064689;28;20025;-61
2022/07/17 04:13:41;;;;;;;0.70;0.43;;;12.30;87.00;;;;;;5069545;28;20024;-61
2022/07/17 04:16:07;;;;;;;1.17;0.60;;;12.30;87.00;;;;;;5064744;28;20570;-61
2022/07/17 04:18:35;;;;;;;1.63;0.50;;;12.30;87.20;;;;;;5068373;28;20469;-61
2022/07/17 04:21:06;;;;;;;1.92;0.60;;;12.30;87.20;;;;;;5066618;28;20108;-61
2022/07/17 04:23:32;;;;;;;2.75;0.80;;;12.30;87.70;;;;;;5066974;28;20108;-61
2022/07/17 04:25:58;;;;;;;2.50;0.50;;;12.20;88.00;;;;;;5065962;28;20107;-61
2022/07/17 04:28:24;;;;;;;1.65;0.50;;;12.20;88.20;;;;;;5068323;28;20025;-61
2022/07/17 04:30:49;;;;;;;1.75;0.50;;;12.20;88.40;;;;;;5068001;28;20024;-61
2022/07/17 04:33:15;;;;;;;2.53;0.50;;;12.30;88.60;;;;;;5066925;28;20491;-61
2022/07/17 04:35:41;;;;;;;1.58;0.60;;;12.30;88.60;;;;;;5065996;28;20024;-61
2022/07/17 04:38:08;;;;;;;1.50;0.63;;;12.40;88.80;;;;;;5068084;28;20480;-61
2022/07/17 04:40:35;;;;;;;3.60;0.60;;;12.40;88.90;;;;;;5067984;28;20028;-61
2022/07/17 04:43:01;;;;;;;1.63;0.60;;;12.40;89.10;;;;;;5066487;28;20055;-61
2022/07/17 04:45:26;;;;;;;1.60;0.55;;;12.50;89.30;;;;;;5068368;28;20044;-61
2022/07/17 04:47:52;;;;;;;1.65;0.60;;;12.50;89.30;;;;;;5067264;28;20145;-61
2022/07/17 04:50:18;;;;;;;1.83;0.70;;;12.60;89.50;;;;;;5064891;28;20017;-61
2022/07/17 04:52:43;;;;;;;1.67;0.73;;;12.60;89.70;;;;;;5067380;28;20035;-61
2022/07/17 04:55:09;;;;;;;1.50;0.60;;;12.60;89.90;;;;;;5067357;28;20408;-61
2022/07/17 04:57:35;;;;;;;1.45;0.60;;;12.70;90.00;;;;;;5067228;28;20200;-61
2022/07/17 05:00:01;;;;;;;2.13;0.70;;;12.70;90.10;;;;;;5064833;28;20028;-61
2022/07/17 05:02:27;;;;;;;2.47;0.60;;;12.70;90.20;;;;;;5067499;28;20051;-61
2022/07/17 05:04:52;;;;;;;2.90;0.73;;;12.70;90.30;;;;;;5066210;28;20071;-61
2022/07/17 05:07:18;;;;;;;2.55;0.90;;;12.70;90.40;;;;;;5065839;28;20523;-61
2022/07/17 05:09:43;;;;;;;1.35;0.70;;;12.80;90.50;;;;;;5067656;28;20030;-61
2022/07/17 05:12:09;;;;;;;2.08;0.80;;;12.80;90.60;;;;;;5066187;28;20032;-62
2022/07/17 05:14:35;;;;;;;2.28;0.73;;;12.80;90.70;;;;;;5064918;28;20056;-61
2022/07/17 05:17:00;;;;;;;3.67;1.00;;;12.90;90.80;;;;;;5066120;28;20099;-61
2022/07/17 05:19:26;;;;;;;1.60;0.73;;;12.90;90.90;;;;;;5067402;28;20484;-61
2022/07/17 05:21:52;;;;;;;4.97;1.23;;;13.00;91.00;;;;;;5064228;28;20039;-61
2022/07/17 05:24:17;;;;;;;1.85;0.80;;;13.00;91.20;;;;;;5066505;28;20472;-61
2022/07/17 05:26:43;;;;;;;2.15;0.90;;;13.10;91.20;;;;;;5057877;28;20052;-61
2022/07/17 05:29:08;;;;;;;3.05;1.08;;;13.10;91.30;;;;;;5056407;28;20024;-61
2022/07/17 05:31:34;;;;;;;5.05;1.20;;;13.20;91.40;;;;;;5056984;28;20021;-61
2022/07/17 05:33:59;;;;;;;3.40;1.27;;;13.30;91.60;;;;;;5061296;28;20030;-62
2022/07/17 05:36:25;;;;;;;4.25;1.77;;;13.30;91.60;;;;;;5072931;28;20117;-61
2022/07/17 05:38:51;;;;;;;4.53;1.13;;;13.40;91.80;;;;;;5064115;28;20032;-61
2022/07/17 05:41:16;;;;;;;2.80;1.20;;;13.40;91.90;;;;;;5079204;28;20028;-61
2022/07/17 05:43:42;;;;;;;2.60;1.45;;;13.50;92.00;;;;;;5061126;28;20086;-61
2022/07/17 05:46:07;;;;;;;3.47;1.63;;;13.50;92.10;;;;;;5074455;28;20489;-61
2022/07/17 05:48:33;;;;;;;6.15;1.70;;;13.60;92.20;;;;;;5058117;28;20103;-61
2022/07/17 05:50:58;;;;;;;3.83;1.58;;;13.60;92.30;;;;;;5070826;28;20055;-61
2022/07/17 05:53:24;;;;;;;4.95;1.23;;;13.70;92.40;;;;;;5074208;28;20357;-61
2022/07/17 05:55:50;;;;;;;3.42;1.73;;;13.80;92.40;;;;;;5076022;28;20437;-61
2022/07/17 05:58:16;;;;;;;6.60;1.92;;;13.80;92.70;;;;;;5072402;28;20044;-61
2022/07/17 06:00:42;;;;;;;4.15;1.70;;;13.90;92.40;;;;;;5071706;28;20029;-61
2022/07/17 06:03:08;;;;;;;4.10;1.90;;;13.90;92.40;;;;;;5072828;28;20035;-61
2022/07/17 06:05:33;;;;;;;4.00;1.90;;;14.00;92.50;;;;;;5072817;28;20488;-61
2022/07/17 06:07:59;;;;;;;4.65;1.67;;;14.10;92.50;;;;;;5068910;28;20028;-61
2022/07/17 06:10:26;;;;;;;1.75;1.15;;;14.10;92.50;;;;;;5068285;28;20439;-61
2022/07/17 06:12:52;;;;;;;3.65;1.48;;;14.20;92.40;;;;;;5065140;28;20024;-61
2022/07/17 06:15:19;;;;;;;4.68;1.63;;;14.30;92.30;;;;;;5069985;28;20029;-61
2022/07/17 06:17:44;;;;;;;4.28;2.10;;;14.30;92.30;;;;;;5068135;28;20572;-61
2022/07/17 06:20:12;;;;;;;3.80;1.67;;;14.40;92.30;;;;;;5070069;28;20040;-61
2022/07/17 06:22:37;;;;;;;2.88;1.48;;;14.50;92.20;;;;;;5064808;28;20024;-61
2022/07/17 06:25:03;;;;;;;7.03;2.50;;;14.50;92.10;;;;;;5066853;28;20024;-61
2022/07/17 06:27:29;;;;;;;4.57;1.42;;;14.60;92.10;;;;;;5071407;28;20017;-62
2022/07/17 06:29:55;;;;;;;3.60;1.35;;;14.70;92.20;;;;;;5053970;28;20056;-61
2022/07/17 06:32:20;;;;;;;2.47;1.40;;;14.80;91.80;;;;;;5068866;28;20025;-61
2022/07/17 06:34:46;;;;;;;3.47;0.90;;;14.80;91.60;;;;;;5072401;28;20366;-61
2022/07/17 06:37:11;;;;;;;3.05;0.95;;;14.90;91.50;;;;;;5070730;28;20365;-61
2022/07/17 06:39:37;;;;;;;3.58;0.95;;;15.00;91.30;;;;;;5072365;28;20073;-61
2022/07/17 06:42:03;;;;;;;5.00;1.50;;;15.00;91.10;;;;;;5074720;28;20475;-62
2022/07/17 06:44:28;;;;;;;3.20;0.77;;;15.10;90.90;;;;;;5063290;28;20119;-61
2022/07/17 06:46:54;;;;;;;2.53;1.02;;;15.20;90.70;;;;;;5061435;28;20017;-61
2022/07/17 06:49:19;;;;;;;2.58;0.90;;;15.20;90.40;;;;;;5058783;28;20021;-61
2022/07/17 06:51:45;;;;;;;3.17;0.90;;;15.30;90.20;;;;;;5067082;28;20369;-61
2022/07/17 06:54:15;;;;;;;1.48;0.70;;;15.50;90.00;;;;;;5071900;28;20358;-61
2022/07/17 06:56:41;;;;;;;1.85;0.60;;;15.50;90.00;;;;;;5068934;28;20054;-61
2022/07/17 06:59:07;;;;;;;2.05;0.60;;;15.60;89.20;;;;;;5072051;28;20175;-61
2022/07/17 07:01:36;;;;;;;2.40;0.80;;;15.70;88.80;;;;;;5056959;28;20112;-61
2022/07/17 07:04:03;;;;;;;2.65;0.63;;;15.80;88.20;;;;;;5054674;28;20481;-61
2022/07/17 07:06:29;;;;;;;2.17;0.50;;;15.80;87.80;;;;;;5067669;28;20025;-61
2022/07/17 07:08:55;;;;;;;2.28;0.90;;;15.90;87.50;;;;;;5064141;28;20496;-61
2022/07/17 07:11:21;;;;;;;2.67;0.85;;;16.00;86.90;;;;;;5074047;28;20028;-61
2022/07/17 07:13:46;;;;;;;2.38;0.80;;;16.00;86.20;;;;;;5074507;28;20449;-61
2022/07/17 07:16:12;;;;;;;4.75;0.88;;;16.10;85.80;;;;;;5074042;28;20024;-61
2022/07/17 07:18:37;;;;;;;4.15;0.55;;;16.20;85.60;;;;;;5073157;28;20028;-61
2022/07/17 07:21:03;;;;;;;3.10;0.70;;;16.30;85.30;;;;;;5072912;28;20052;-61
2022/07/17 07:23:29;;;;;;;2.33;0.70;;;16.30;84.80;;;;;;5064140;28;20108;-61
2022/07/17 07:25:54;;;;;;;3.58;0.70;;;16.40;84.30;;;;;;5069706;28;20044;-61
2022/07/17 07:28:20;;;;;;;3.42;0.60;;;16.50;84.10;;;;;;5054399;28;20036;-61
2022/07/17 07:30:45;;;;;;;3.92;0.70;;;16.60;83.70;;;;;;5054590;28;20025;-62
2022/07/17 07:33:11;;;;;;;1.75;0.60;;;16.70;83.40;;;;;;5064451;28;20028;-61
2022/07/17 07:35:36;;;;;;;2.22;0.70;;;16.70;83.00;;;;;;5072976;28;20025;-62
2022/07/17 07:38:03;;;;;;;5.85;0.68;;;16.80;82.60;;;;;;5074010;28;20020;-61
2022/07/17 07:40:28;;;;;;;1.85;0.60;;;16.90;82.30;;;;;;5075041;28;20027;-62
2022/07/17 07:42:54;;;;;;;1.42;0.57;;;17.00;82.10;;;;;;5071925;28;20029;-62
2022/07/17 07:45:20;;;;;;;1.58;0.50;;;17.10;81.90;;;;;;5066682;28;20017;-61
2022/07/17 07:47:48;;;;;;;1.27;0.32;;;17.10;81.50;;;;;;5053983;28;20107;-61
2022/07/17 07:50:14;;;;;;;2.42;0.60;;;17.20;81.20;;;;;;5059735;28;20160;-62
2022/07/17 07:52:40;;;;;;;1.60;0.70;;;17.30;80.60;;;;;;5072291;28;20051;-61
2022/07/17 07:55:35;;;;;;;;;;;;;;;;;;;;;
2022/07/17 07:58:06;;;;;;;2.88;0.60;;;17.50;79.90;;;;;;5053158;28;20041;-61
2022/07/17 08:00:50;;;;;;;;;;;;;;;;;;;;;
2022/07/17 08:03:16;;;;;;;2.25;0.70;;;17.60;79.10;;;;;;5055471;28;20028;-62
2022/07/17 08:05:41;;;;;;;2.25;0.73;;;17.70;78.80;;;;;;5073249;28;20143;-61
2022/07/17 08:08:07;;;;;;;2.65;0.63;;;17.80;78.40;;;;;;5070866;28;20100;-61
2022/07/17 08:10:34;;;;;;;2.58;0.55;;;17.80;77.80;;;;;;5063836;28;20394;-61
2022/07/17 08:13:00;;;;;;;1.83;0.60;;;17.90;77.30;;;;;;5083509;28;20111;-61
2022/07/17 08:15:26;;;;;;;4.50;0.47;;;18.00;76.90;;;;;;5064885;28;20100;-61
2022/07/17 08:17:52;;;;;;;3.42;0.50;;;18.10;76.30;;;;;;5060109;28;20131;-61
2022/07/17 08:20:45;;;;;;;3.88;0.60;;;18.20;75.70;;;;;;5052429;28;20055;-61
2022/07/17 08:23:10;;;;;;;2.72;0.60;;;18.30;75.20;;;;;;5055933;28;20038;-61
2022/07/17 08:26:03;;;;;;;5.63;0.70;;;18.30;75.30;;;;;;5056116;28;20028;-61
2022/07/17 08:28:29;;;;;;;3.05;0.55;;;18.40;75.00;;;;;;5066669;28;20023;-61
2022/07/17 08:30:54;;;;;;;3.15;0.73;;;18.50;74.70;;;;;;5058272;28;20096;-61
2022/07/17 08:33:20;;;;;;;2.38;0.50;;;18.60;74.60;;;;;;5071510;28;20063;-61
2022/07/17 08:35:45;;;;;;;2.60;0.45;;;18.70;74.40;;;;;;5058609;28;20021;-61
2022/07/17 08:38:11;;;;;;;1.83;0.60;;;18.80;74.10;;;;;;5071634;28;20031;-61
2022/07/17 08:40:38;;;;;;;2.40;0.60;;;18.90;73.60;;;;;;5066443;28;20028;-61
2022/07/17 08:43:07;;;;;;;1.88;0.40;;;19.00;73.20;;;;;;5066725;28;20100;-61
2022/07/17 08:45:33;;;;;;;1.85;0.60;;;19.10;73.00;;;;;;5051723;28;20024;-61
2022/07/17 08:48:00;;;;;;;3.13;0.82;;;19.20;72.80;;;;;;5052842;28;20048;-61
2022/07/17 08:50:35;;;;;;;2.22;0.47;;;19.20;72.60;;;;;;5052531;28;20028;-62
2022/07/17 08:53:07;;;;;;;2.08;0.80;;;19.30;72.40;;;;;;5053133;28;20037;-61
2022/07/17 08:55:33;;;;;;;3.40;1.15;;;19.40;72.10;;;;;;5068324;28;20017;-62
2022/07/17 08:57:59;;;;;;;1.67;0.60;;;19.50;71.70;;;;;;5052578;28;20055;-62
2022/07/17 09:00:27;;;;;;;2.50;0.50;;;19.50;71.50;;;;;;5052783;28;20092;-61
2022/07/17 09:03:01;;;;;;;3.85;0.65;;;19.60;71.40;;;;;;5064948;28;20074;-61
2022/07/17 09:05:33;;;;;;;2.65;0.75;;;19.70;71.00;;;;;;5059412;28;20027;-61
2022/07/17 09:07:59;;;;;;;2.30;0.60;;;19.80;70.70;;;;;;5063905;28;20021;-61
2022/07/17 09:10:31;;;;;;;2.03;0.50;;;19.80;69.70;;;;;;5067163;28;20052;-62
2022/07/17 09:12:58;;;;;;;1.17;0.40;;;19.90;69.40;;;;;;5067952;28;20024;-61
2022/07/17 09:15:23;;;;;;;3.67;0.70;;;20.00;69.20;;;;;;5069936;28;20107;-60
2022/07/17 09:17:54;;;;;;;2.13;0.50;;;20.10;68.10;;;;;;5063770;28;20533;-61
2022/07/17 09:20:35;;;;;;;;;;;;;;;;;;;;;
2022/07/17 09:23:04;;;;;;;4.40;0.60;;;20.20;65.20;;;;;;5059995;28;20036;-61
2022/07/17 09:26:05;;;;;;;5.85;0.60;;;20.20;65.40;;;;;;5054693;28;20020;-60
2022/07/17 09:28:31;;;;;;;3.30;0.50;;;20.30;65.30;;;;;;5056131;28;20488;-61
2022/07/17 09:34:19;;;;;;;1.88;0.60;;;20.40;65.50;;;;;;5058419;28;20099;-61
2022/07/17 09:36:44;;;;;;;2.28;0.57;;;20.50;65.40;;;;;;5079516;28;20047;-61
2022/07/17 09:39:51;;;;;;;;;;;;;;;;;;;;;
2022/07/17 09:42:29;;;;;;;1.13;0.40;;;20.70;64.40;;;;;;5076958;28;20021;-61
2022/07/17 09:45:07;;;;;;;2.63;0.35;;;20.80;64.40;;;;;;5057624;28;20484;-61
2022/07/17 09:47:34;;;;;;;2.72;0.47;;;20.80;64.00;;;;;;5060233;28;20021;-61
2022/07/17 09:50:08;;;;;;;2.75;0.40;;;20.90;64.00;;;;;;5064710;28;20042;-61
2022/07/17 09:52:37;;;;;;;2.40;0.40;;;21.00;63.70;;;;;;5065024;28;20055;-61
2022/07/17 09:55:04;;;;;;;1.48;0.32;;;21.10;63.40;;;;;;5059314;28;20021;-61
2022/07/17 09:57:33;;;;;;;4.32;0.70;;;21.20;63.30;;;;;;5069029;28;20179;-61
2022/07/17 10:00:05;;;;;;;4.05;0.85;;;21.20;62.80;;;;;;5061284;28;20020;-61
2022/07/17 10:02:32;;;;;;;1.60;0.60;;;21.30;62.30;;;;;;5061363;28;20025;-61
2022/07/17 10:04:58;;;;;;;2.58;0.50;;;21.40;62.00;;;;;;5079033;28;20534;-61
2022/07/17 10:07:23;;;;;;;1.42;0.43;;;21.40;61.70;;;;;;5065316;28;20028;-61
2022/07/17 10:09:49;;;;;;;2.45;0.50;;;21.50;61.40;;;;;;5066058;28;20028;-61
2022/07/17 10:12:16;;;;;;;1.48;0.50;;;21.60;61.00;;;;;;5076299;28;20091;-61
2022/07/17 10:14:53;;;;;;;2.95;0.60;;;21.70;60.30;;;;;;5053751;28;20025;-61
2022/07/17 10:17:27;;;;;;;7.25;1.17;;;21.70;61.00;;;;;;5052630;28;20111;-61
2022/07/17 10:19:54;;;;;;;2.15;0.65;;;21.80;60.10;;;;;;5053092;28;20032;-61
2022/07/17 10:22:20;;;;;;;3.30;0.50;;;21.80;59.70;;;;;;5053840;28;20099;-61
2022/07/17 10:25:14;;;;;;;;;;;;;;;;;;;;;
2022/07/17 10:27:51;;;;;;;1.17;0.40;;;22.10;59.70;;;;;;5056902;28;20017;-61
2022/07/17 10:30:28;;;;;;;1.58;0.70;;;22.20;59.60;;;;;;5056489;28;20025;-61
2022/07/17 10:32:58;;;;;;;1.52;0.50;;;22.40;59.20;;;;;;5055706;28;20021;-61
2022/07/17 10:35:24;;;;;;;;;;;22.40;58.80;;;;;;5061830;28;20089;-61
2022/07/17 10:38:12;;;;;;;0.93;0.32;;;22.50;59.00;;;;;;5072925;28;19904;-61
2022/07/17 10:40:37;;;;;;;1.25;0.40;;;22.70;58.30;;;;;;5071194;28;20494;-61
2022/07/17 10:43:06;;;;;;;2.42;0.57;;;22.80;57.60;;;;;;5067475;28;20041;-62
2022/07/17 10:45:42;;;;;;;1.75;0.60;;;22.90;57.00;;;;;;5059245;28;20028;-62
2022/07/17 10:48:09;;;;;;;1.55;0.50;;;23.00;56.50;;;;;;5072297;28;20107;-61
2022/07/17 10:50:35;;;;;;;3.08;0.80;;;23.10;56.20;;;;;;5073365;28;20015;-61
2022/07/17 10:53:08;;;;;;;1.88;0.40;;;23.30;55.60;;;;;;5070826;28;20021;-61
2022/07/17 10:55:38;;;;;;;2.15;0.60;;;23.40;55.60;;;;;;5056819;28;20025;-61
2022/07/17 10:58:33;;;;;;;0.90;0.40;;;23.50;55.80;;;;;;5058072;28;20512;-61
2022/07/17 11:01:00;;;;;;;2.53;0.40;;;23.70;55.70;;;;;;5057040;28;20477;-61
2022/07/17 11:03:26;;;;;;;1.20;0.30;;;23.80;55.50;;;;;;5057968;28;20025;-61
2022/07/17 11:05:52;;;;;;;4.18;0.43;;;24.00;55.30;;;;;;5070603;28;20025;-61
2022/07/17 11:08:17;;;;;;;2.42;0.50;;;24.10;55.20;;;;;;5062236;28;20021;-61
2022/07/17 11:10:43;;;;;;;2.58;0.45;;;24.30;55.00;;;;;;5057893;28;20068;-61
2022/07/17 11:13:14;;;;;;;4.45;0.98;;;24.40;54.20;;;;;;5060848;28;20473;-62
2022/07/17 11:15:48;;;;;;;4.22;0.90;;;24.50;53.30;;;;;;5056509;28;20021;-62
2022/07/17 11:18:15;;;;;;;2.13;0.60;;;24.70;52.50;;;;;;5068998;28;20140;-61
2022/07/17 11:21:00;;;;;;;1.77;0.52;;;24.70;51.60;;;;;;5062235;28;20029;-61
2022/07/17 11:23:52;;;;;;;2.75;0.50;;;24.90;51.70;;;;;;5057575;28;20027;-61
2022/07/17 11:26:19;;;;;;;2.80;0.70;;;25.00;51.50;;;;;;5052507;28;20024;-61
2022/07/17 11:28:45;;;;;;;2.60;0.50;;;25.10;51.10;;;;;;5063192;28;20020;-62
2022/07/17 11:31:16;;;;;;;1.23;0.57;;;25.20;51.50;;;;;;5062887;28;20407;-62
2022/07/17 11:34:27;;;;;;;3.53;0.50;;;25.40;51.80;;;;;;5070570;28;20542;-61
2022/07/17 11:36:59;;;;;;;2.17;0.57;;;25.60;51.70;;;;;;5013756;28;20020;-61
2022/07/17 11:39:45;;;;;;;1.98;0.60;;;25.70;51.70;;;;;;5039018;28;20047;-61
2022/07/17 11:42:13;;;;;;;2.10;0.60;;;25.90;51.20;;;;;;5055267;28;20393;-61
2022/07/17 11:44:59;;;;;;;1.33;0.40;;;26.10;50.80;;;;;;5070183;28;20021;-61
2022/07/17 11:47:26;;;;;;;3.50;0.75;;;26.30;50.90;;;;;;5067870;28;20009;-61
2022/07/17 11:50:18;;;;;;;1.70;0.50;;;26.50;49.80;;;;;;5058093;28;20514;-61
2022/07/17 11:52:48;;;;;;;3.65;0.68;;;26.70;49.80;;;;;;5063004;28;20027;-61
2022/07/17 11:55:14;;;;;;;3.00;0.82;;;26.70;47.70;;;;;;5060526;28;20070;-62
2022/07/17 11:57:46;;;;;;;2.58;0.70;;;26.40;47.30;;;;;;5069884;28;20048;-61
2022/07/17 12:00:13;;;;;;;4.75;0.70;;;26.60;48.10;;;;;;5060716;28;20029;-61
2022/07/17 12:02:38;;;;;;;1.30;0.60;;;26.70;48.00;;;;;;5055713;28;20115;-61
2022/07/17 12:05:05;;;;;;;1.92;0.47;;;27.00;48.30;;;;;;5058058;28;20599;-61
2022/07/17 12:07:45;;;;;;;1.30;0.50;;;27.20;48.40;;;;;;5062606;28;20085;-62
2022/07/17 12:10:13;;;;;;;1.42;0.55;;;27.50;47.90;;;;;;5058855;28;20107;-61
2022/07/17 12:12:39;;;;;;;2.20;0.50;;;27.60;47.50;;;;;;5064678;28;20468;-61
2022/07/17 12:15:06;;;;;;;1.50;0.52;;;27.80;47.10;;;;;;5068705;28;20029;-61
2022/07/17 12:17:57;;;;;;;2.50;0.70;;;28.00;46.80;;;;;;5060619;28;20491;-62
2022/07/17 12:20:24;;;;;;;1.65;0.60;;;28.30;45.90;;;;;;5060871;28;20032;-62
2022/07/17 12:22:50;;;;;;;3.13;0.60;;;28.40;45.30;;;;;;5055163;28;20063;-62
2022/07/17 12:25:27;;;;;;;1.83;0.50;;;28.40;44.80;;;;;;5058567;28;20016;-62
2022/07/17 12:27:52;;;;;;;1.75;0.47;;;28.50;44.90;;;;;;5062159;28;20031;-61
2022/07/17 12:30:19;;;;;;;2.63;0.50;;;28.70;45.30;;;;;;5066546;28;20392;-62
2022/07/17 12:32:45;;;;;;;1.33;0.52;;;28.90;45.20;;;;;;5067699;28;20020;-61
2022/07/17 12:35:32;;;;;;;;;;;;;;;;;;;;;
2022/07/17 12:37:58;;;;;;;2.15;0.63;;;29.20;45.20;;;;;;5065583;28;20027;-62
2022/07/17 12:40:23;;;;;;;2.25;0.40;;;29.30;45.00;;;;;;5069640;28;20021;-62
2022/07/17 12:42:53;;;;;;;2.55;0.60;;;29.40;44.90;;;;;;5077725;28;20383;-62
2022/07/17 12:45:19;;;;;;;2.78;0.70;;;29.60;44.80;;;;;;5052968;28;20021;-62
2022/07/17 12:47:58;;;;;;;1.33;0.50;;;29.70;44.80;;;;;;5059790;28;20082;-62
2022/07/17 12:50:23;;;;;;;1.20;0.50;;;29.90;44.70;;;;;;5053171;28;20035;-62
2022/07/17 12:52:49;;;;;;;3.13;0.80;;;30.00;44.70;;;;;;5061645;28;20028;-62
2022/07/17 12:55:36;;;;;;;3.55;0.90;;;29.90;42.40;;;;;;5063318;28;20035;-61
2022/07/17 12:58:02;;;;;;;2.78;0.70;;;29.90;43.30;;;;;;5063148;28;20049;-62
2022/07/17 13:00:27;;;;;;;2.08;0.50;;;30.00;43.40;;;;;;5066865;28;20543;-62